Nearby METAR Reports

 

KSJC - San Jose, California, USA
Distance from station: NE 9mi, 14km
Updated: Sat, 29-Jan-2022 2:53am CST
Clear
Clear
 Wind from SSE
Wind: SSE 3 mph , 6 km/h
Temperature: 46°F , 8°C
Dew Point: 37°F , 3°C
Humidity: 71%
Barometer: 30.23 inHg , 1023.7 hPa
Clouds: Clear
Visibility: 10 miles , 16 km
2022/01/29 08:53 KSJC 290853Z AUTO 15003KT 10SM CLR 08/03 A3023 RMK AO2 SLP237 T00780028 50002
KNUQ - Moffett Nas/Mtn, California, USA
Distance from station: N 9mi, 14km
Updated: Sat, 29-Jan-2022 3:35am CST
Clear
Clear
 Wind from calm
Wind: Calm
Temperature: 43°F , 6°C
Dew Point: 37°F , 3°C
Humidity: 81%
Barometer: 30.23 inHg , 1023.7 hPa
Clouds: Clear
Visibility: 10 miles , 16 km
2022/01/29 09:35 KNUQ 290935Z AUTO 00000KT 10SM CLR 06/03 A3023 RMK AO2
 
KPAO - Palo Alto, California, USA
Distance from station: NNW 14mi, 23km
Updated: Fri, 28-Jan-2022 10:47pm CST
NOT Current
Clear
Clear
 Wind from calm
Wind: Calm
Temperature: 46°F , 8°C
Dew Point: 41°F , 5°C
Humidity: 82%
Barometer: 30.23 inHg , 1023.7 hPa
Clouds: Clear
Visibility: 10 miles , 16 km
2022/01/29 04:47 KPAO 290447Z 00000KT 10SM SKC 08/05 A3023 RMK LAST
KRHV - San Jose/Reid, California, USA
Distance from station: ENE 12mi, 19km
Updated: Fri, 28-Jan-2022 11:55pm CST
NOT Current
Partly cloudy
Partly cloudy
 Wind from calm
Wind: Calm
Temperature: 48°F , 9°C
Dew Point: 41°F , 5°C
Humidity: 76%
Barometer: 30.24 inHg , 1024 hPa
Clouds: Partly cloudy
Visibility: 10 miles , 16 km
Cloud details: Partly cloudy 10000 ft
2022/01/29 05:55 KRHV 290555Z 00000KT 10SM SCT100 09/05 A3024 RMK LAST
 
KOAK - Oakland, California, USA
Distance from station: NNW 31mi, 50km
Updated: Sat, 29-Jan-2022 2:53am CST
Mostly cloudy
Mostly cloudy
 Wind from calm
Wind: Calm
Temperature: 45°F , 7°C
Dew Point: 41°F , 5°C
Humidity: 87%
Barometer: 30.24 inHg , 1024 hPa
Clouds: Mostly cloudy
Visibility: 8 miles , 13 km
Cloud details: Mostly cloudy 16000 ft
2022/01/29 08:53 KOAK 290853Z 00000KT 8SM BKN160 07/05 A3024 RMK AO2 SLP238 T00720050 50000 $
KSQL - San Carlos Airpo, California, USA
Distance from station: NW 21mi, 34km
Updated: Sat, 29-Jan-2022 3:35am CST
Clear
Clear
 Wind from calm
Wind: Calm
Temperature: 45°F , 7°C
Dew Point: 39°F , 4°C
Humidity: 81%
Barometer: 30.24 inHg , 1024 hPa
Clouds: Clear
Visibility: 8 miles , 13 km
2022/01/29 09:35 KSQL 290935Z AUTO 00000KT 8SM CLR 07/04 A3024 RMK AO2
 
KSFO - San Francisco, California, USA
Distance from station: NW 30mi, 49km
Updated: Sat, 29-Jan-2022 2:56am CST
Partly cloudy
Partly cloudy
 Wind from calm
Wind: Calm
Temperature: 48°F , 9°C
Dew Point: 41°F , 5°C
Humidity: 76%
Barometer: 30.23 inHg , 1023.7 hPa
Clouds: Partly cloudy
Visibility: 10 miles , 16 km
Cloud details: Partly cloudy 16000 ft
2022/01/29 08:56 KSFO 290856Z 00000KT 10SM SCT160 09/05 A3023 RMK AO2 SLP236 T00940050 50000
KE16 - San Martin, California, USA
Distance from station: ESE 27mi, 43km
Updated: Sat, 29-Jan-2022 3:30am CST
Light rain, Partly cloudy
Light rain, Partly cloudy
 Wind from calm
Wind: Calm
Temperature: 39°F , 4°C
Dew Point: 37°F , 3°C
Humidity: 93%
Barometer: 30.26 inHg , 1024.7 hPa
Summary: Light rain
Clouds: Partly cloudy
Visibility: 10 miles , 16 km
Cloud details: Few Clouds 1700 ft
Few Clouds 3100 ft
Partly cloudy 3700 ft
2022/01/29 09:30 KE16 290930Z AUTO 00000KT 10SM -RA FEW017 FEW031 SCT037 04/03 A3026 RMK AO2
 
KWVI - Watsonville, California, USA
Distance from station: SSE 27mi, 44km
Updated: Sat, 29-Jan-2022 2:53am CST
Clear
Clear
 Wind from calm
Wind: Calm
Temperature: 45°F , 7°C
Dew Point: 32°F , 0°C
Humidity: 61%
Barometer: 30.24 inHg , 1024 hPa
Clouds: Clear
Visibility: 10 miles , 16 km
2022/01/29 08:53 KWVI 290853Z AUTO 00000KT 10SM CLR 07/00 A3024 RMK AO2 SLP238 T00670000 50003
KHAF - Half Moon Bay, California, USA
Distance from station: WNW 31mi, 50km
Updated: Sat, 29-Jan-2022 3:35am CST
Clear
Clear
 Wind from calm
Wind: Calm
Temperature: 41°F , 5°C
Dew Point: 36°F , 2°C
Humidity: 81%
Barometer: 30.21 inHg , 1023 hPa
Clouds: Clear
Visibility: 9 miles , 14 km
2022/01/29 09:35 KHAF 290935Z AUTO 00000KT 9SM CLR 05/02 A3021 RMK AO2
 
KHWD - Hayward, California, USA
Distance from station: N 28mi, 44km
Updated: Sat, 29-Jan-2022 2:54am CST
Clear
Clear
 Wind from NE
Wind: NE 5 mph , 7 km/h
Temperature: 48°F , 9°C
Wind Chill: 46°F , 8°C
Dew Point: 39°F , 4°C
Humidity: 71%
Barometer: 30.23 inHg , 1023.7 hPa
Clouds: Clear
Visibility: 9 miles , 14 km
2022/01/29 08:54 KHWD 290854Z 04004KT 9SM CLR 09/04 A3023 RMK AO2 SLP246 T00890039 50000
KLVK - Livermore, California, USA
Distance from station: NNE 31mi, 51km
Updated: Sat, 29-Jan-2022 2:53am CST
Clear
Clear
 Wind from calm
Wind: Calm
Temperature: 39°F , 4°C
Dew Point: 36°F , 2°C
Humidity: 87%
Barometer: 30.24 inHg , 1024 hPa
Clouds: Clear
Visibility: 7 miles , 11 km
2022/01/29 08:53 KLVK 290853Z AUTO 00000KT 7SM CLR 04/02 A3024 RMK AO2 SLP239 T00390022 58000